sensor_id;sensor_type;location;lat;lon;timestamp;temperature;humidity
11569;DHT22;5840;46.894;15.542;2022-11-11T00:01:45;3.80;99.90
11569;DHT22;5840;46.894;15.542;2022-11-11T00:04:12;3.90;99.90
11569;DHT22;5840;46.894;15.542;2022-11-11T00:06:39;3.80;99.90
11569;DHT22;5840;46.894;15.542;2022-11-11T00:09:08;3.80;99.90
11569;DHT22;5840;46.894;15.542;2022-11-11T00:11:36;3.80;99.90
11569;DHT22;5840;46.894;15.542;2022-11-11T00:14:03;3.80;99.90
11569;DHT22;5840;46.894;15.542;2022-11-11T00:16:30;3.80;99.90
11569;DHT22;5840;46.894;15.542;2022-11-11T00:19:17;3.80;99.90
11569;DHT22;5840;46.894;15.542;2022-11-11T00:22:19;3.70;99.90
11569;DHT22;5840;46.894;15.542;2022-11-11T00:25:06;3.70;99.90
11569;DHT22;5840;46.894;15.542;2022-11-11T00:27:33;3.60;99.90
11569;DHT22;5840;46.894;15.542;2022-11-11T00:30:00;3.50;99.90
11569;DHT22;5840;46.894;15.542;2022-11-11T00:32:27;3.50;99.90
11569;DHT22;5840;46.894;15.542;2022-11-11T00:34:57;3.50;99.90
11569;DHT22;5840;46.894;15.542;2022-11-11T00:37:43;3.40;99.90
11569;DHT22;5840;46.894;15.542;2022-11-11T00:40:13;3.40;99.90
11569;DHT22;5840;46.894;15.542;2022-11-11T00:42:40;3.40;99.90
11569;DHT22;5840;46.894;15.542;2022-11-11T00:45:08;3.40;99.90
11569;DHT22;5840;46.894;15.542;2022-11-11T00:47:35;3.40;99.90
11569;DHT22;5840;46.894;15.542;2022-11-11T00:50:21;3.40;99.90
11569;DHT22;5840;46.894;15.542;2022-11-11T00:53:09;3.40;99.90
11569;DHT22;5840;46.894;15.542;2022-11-11T00:55:38;3.40;99.90
11569;DHT22;5840;46.894;15.542;2022-11-11T00:58:05;3.40;99.90
11569;DHT22;5840;46.894;15.542;2022-11-11T01:00:32;3.40;99.90
11569;DHT22;5840;46.894;15.542;2022-11-11T01:02:59;3.40;99.90
11569;DHT22;5840;46.894;15.542;2022-11-11T01:05:26;3.40;99.90
11569;DHT22;5840;46.894;15.542;2022-11-11T01:07:53;3.30;99.90
11569;DHT22;5840;46.894;15.542;2022-11-11T01:10:21;3.30;99.90
11569;DHT22;5840;46.894;15.542;2022-11-11T01:13:17;3.30;99.90
11569;DHT22;5840;46.894;15.542;2022-11-11T01:15:46;3.30;99.90
11569;DHT22;5840;46.894;15.542;2022-11-11T01:18:18;3.20;99.90
11569;DHT22;5840;46.894;15.542;2022-11-11T01:20:46;3.20;99.90
11569;DHT22;5840;46.894;15.542;2022-11-11T01:23:13;3.20;99.90
11569;DHT22;5840;46.894;15.542;2022-11-11T01:25:41;3.20;99.90
11569;DHT22;5840;46.894;15.542;2022-11-11T01:28:08;3.20;99.90
11569;DHT22;5840;46.894;15.542;2022-11-11T01:30:37;3.20;99.90
11569;DHT22;5840;46.894;15.542;2022-11-11T01:33:04;3.10;99.90
11569;DHT22;5840;46.894;15.542;2022-11-11T01:35:31;3.10;99.90
11569;DHT22;5840;46.894;15.542;2022-11-11T01:37:58;3.10;99.90
11569;DHT22;5840;46.894;15.542;2022-11-11T01:40:25;3.10;99.90
11569;DHT22;5840;46.894;15.542;2022-11-11T01:42:53;3.20;99.90
11569;DHT22;5840;46.894;15.542;2022-11-11T01:45:53;3.20;99.90
11569;DHT22;5840;46.894;15.542;2022-11-11T01:48:27;3.10;99.90
11569;DHT22;5840;46.894;15.542;2022-11-11T01:51:32;3.10;99.90
11569;DHT22;5840;46.894;15.542;2022-11-11T01:54:03;3.10;99.90
11569;DHT22;5840;46.894;15.542;2022-11-11T01:56:31;3.10;99.90
11569;DHT22;5840;46.894;15.542;2022-11-11T01:59:00;3.20;99.90
11569;DHT22;5840;46.894;15.542;2022-11-11T02:01:30;3.20;99.90
11569;DHT22;5840;46.894;15.542;2022-11-11T02:03:59;3.20;99.90
11569;DHT22;5840;46.894;15.542;2022-11-11T02:06:44;3.20;99.90
11569;DHT22;5840;46.894;15.542;2022-11-11T02:09:11;3.10;99.90
11569;DHT22;5840;46.894;15.542;2022-11-11T02:11:40;3.10;99.90
11569;DHT22;5840;46.894;15.542;2022-11-11T02:14:24;3.10;99.90
11569;DHT22;5840;46.894;15.542;2022-11-11T02:17:08;3.10;99.90
11569;DHT22;5840;46.894;15.542;2022-11-11T02:19:43;3.20;99.90
11569;DHT22;5840;46.894;15.542;2022-11-11T02:22:15;3.20;99.90
11569;DHT22;5840;46.894;15.542;2022-11-11T02:24:44;3.20;99.90
11569;DHT22;5840;46.894;15.542;2022-11-11T02:27:14;3.20;99.90
11569;DHT22;5840;46.894;15.542;2022-11-11T02:29:43;3.20;99.90
11569;DHT22;5840;46.894;15.542;2022-11-11T02:32:11;3.20;99.90
11569;DHT22;5840;46.894;15.542;2022-11-11T02:34:38;3.20;99.90
11569;DHT22;5840;46.894;15.542;2022-11-11T02:37:07;3.10;99.90
11569;DHT22;5840;46.894;15.542;2022-11-11T02:39:37;3.10;99.90
11569;DHT22;5840;46.894;15.542;2022-11-11T02:42:07;3.10;99.90
11569;DHT22;5840;46.894;15.542;2022-11-11T02:44:35;3.10;99.90
11569;DHT22;5840;46.894;15.542;2022-11-11T02:47:03;3.10;99.90
11569;DHT22;5840;46.894;15.542;2022-11-11T02:49:31;3.10;99.90
11569;DHT22;5840;46.894;15.542;2022-11-11T02:51:58;3.10;99.90
11569;DHT22;5840;46.894;15.542;2022-11-11T02:54:24;3.10;99.90
11569;DHT22;5840;46.894;15.542;2022-11-11T02:56:51;3.10;99.90
11569;DHT22;5840;46.894;15.542;2022-11-11T02:59:36;3.10;99.90
11569;DHT22;5840;46.894;15.542;2022-11-11T03:02:03;3.10;99.90
11569;DHT22;5840;46.894;15.542;2022-11-11T03:04:31;3.00;99.90
11569;DHT22;5840;46.894;15.542;2022-11-11T03:06:58;3.00;99.90
11569;DHT22;5840;46.894;15.542;2022-11-11T03:09:25;3.00;99.90
11569;DHT22;5840;46.894;15.542;2022-11-11T03:11:52;3.00;99.90
11569;DHT22;5840;46.894;15.542;2022-11-11T03:14:19;3.00;99.90
11569;DHT22;5840;46.894;15.542;2022-11-11T03:16:47;3.00;99.90
11569;DHT22;5840;46.894;15.542;2022-11-11T03:19:31;3.00;99.90
11569;DHT22;5840;46.894;15.542;2022-11-11T03:21:58;2.90;99.90
11569;DHT22;5840;46.894;15.542;2022-11-11T03:24:25;2.90;99.90
11569;DHT22;5840;46.894;15.542;2022-11-11T03:27:13;2.90;99.90
11569;DHT22;5840;46.894;15.542;2022-11-11T03:29:40;2.90;99.90
11569;DHT22;5840;46.894;15.542;2022-11-11T03:32:09;2.90;99.90
11569;DHT22;5840;46.894;15.542;2022-11-11T03:34:36;2.90;99.90
11569;DHT22;5840;46.894;15.542;2022-11-11T03:37:04;2.90;99.90
11569;DHT22;5840;46.894;15.542;2022-11-11T03:39:49;2.80;99.90
11569;DHT22;5840;46.894;15.542;2022-11-11T03:42:16;2.80;99.90
11569;DHT22;5840;46.894;15.542;2022-11-11T03:44:43;2.80;99.90
11569;DHT22;5840;46.894;15.542;2022-11-11T03:47:11;2.80;99.90
11569;DHT22;5840;46.894;15.542;2022-11-11T03:49:41;2.80;99.90
11569;DHT22;5840;46.894;15.542;2022-11-11T03:52:10;2.70;99.90
11569;DHT22;5840;46.894;15.542;2022-11-11T03:54:37;2.80;99.90
11569;DHT22;5840;46.894;15.542;2022-11-11T03:57:04;2.70;99.90
11569;DHT22;5840;46.894;15.542;2022-11-11T03:59:48;2.70;99.90
11569;DHT22;5840;46.894;15.542;2022-11-11T04:02:17;2.70;99.90
11569;DHT22;5840;46.894;15.542;2022-11-11T04:05:01;2.70;99.90
11569;DHT22;5840;46.894;15.542;2022-11-11T04:07:45;2.70;99.90
11569;DHT22;5840;46.894;15.542;2022-11-11T04:10:30;2.70;99.90
11569;DHT22;5840;46.894;15.542;2022-11-11T04:12:57;2.70;99.90
11569;DHT22;5840;46.894;15.542;2022-11-11T04:15:42;2.70;99.90
11569;DHT22;5840;46.894;15.542;2022-11-11T04:18:28;2.70;99.90
11569;DHT22;5840;46.894;15.542;2022-11-11T04:21:14;2.60;99.90
11569;DHT22;5840;46.894;15.542;2022-11-11T04:23:59;2.60;99.90
11569;DHT22;5840;46.894;15.542;2022-11-11T04:26:26;2.60;99.90
11569;DHT22;5840;46.894;15.542;2022-11-11T04:28:52;2.60;99.90
11569;DHT22;5840;46.894;15.542;2022-11-11T04:31:36;2.60;99.90
11569;DHT22;5840;46.894;15.542;2022-11-11T04:34:25;2.60;99.90
11569;DHT22;5840;46.894;15.542;2022-11-11T04:36:50;2.60;99.90
11569;DHT22;5840;46.894;15.542;2022-11-11T04:39:17;2.60;99.90
11569;DHT22;5840;46.894;15.542;2022-11-11T04:42:02;2.50;99.90
11569;DHT22;5840;46.894;15.542;2022-11-11T04:44:29;2.50;99.90
11569;DHT22;5840;46.894;15.542;2022-11-11T04:47:13;2.50;99.90
11569;DHT22;5840;46.894;15.542;2022-11-11T04:49:41;2.50;99.90
11569;DHT22;5840;46.894;15.542;2022-11-11T04:52:09;2.60;99.90
11569;DHT22;5840;46.894;15.542;2022-11-11T04:54:55;2.60;99.90
11569;DHT22;5840;46.894;15.542;2022-11-11T04:57:40;2.60;99.90
11569;DHT22;5840;46.894;15.542;2022-11-11T05:00:09;2.60;99.90
11569;DHT22;5840;46.894;15.542;2022-11-11T05:02:36;2.60;99.90
11569;DHT22;5840;46.894;15.542;2022-11-11T05:05:22;2.70;99.90
11569;DHT22;5840;46.894;15.542;2022-11-11T05:07:49;2.60;99.90
11569;DHT22;5840;46.894;15.542;2022-11-11T05:10:34;2.60;99.90
11569;DHT22;5840;46.894;15.542;2022-11-11T05:13:01;2.60;99.90
11569;DHT22;5840;46.894;15.542;2022-11-11T05:15:45;2.60;99.90
11569;DHT22;5840;46.894;15.542;2022-11-11T05:18:29;2.60;99.90
11569;DHT22;5840;46.894;15.542;2022-11-11T05:21:18;2.60;99.90
11569;DHT22;5840;46.894;15.542;2022-11-11T05:23:49;2.60;99.90
11569;DHT22;5840;46.894;15.542;2022-11-11T05:26:33;2.60;99.90
11569;DHT22;5840;46.894;15.542;2022-11-11T05:29:01;2.60;99.90
11569;DHT22;5840;46.894;15.542;2022-11-11T05:31:28;2.60;99.90
11569;DHT22;5840;46.894;15.542;2022-11-11T05:33:56;2.60;99.90
11569;DHT22;5840;46.894;15.542;2022-11-11T05:36:24;2.50;99.90
11569;DHT22;5840;46.894;15.542;2022-11-11T05:38:51;2.50;99.90
11569;DHT22;5840;46.894;15.542;2022-11-11T05:41:18;2.50;99.90
11569;DHT22;5840;46.894;15.542;2022-11-11T05:43:45;2.50;99.90
11569;DHT22;5840;46.894;15.542;2022-11-11T05:46:12;2.50;99.90
11569;DHT22;5840;46.894;15.542;2022-11-11T05:48:38;2.50;99.90
11569;DHT22;5840;46.894;15.542;2022-11-11T05:51:27;2.50;99.90
11569;DHT22;5840;46.894;15.542;2022-11-11T05:53:55;2.50;99.90
11569;DHT22;5840;46.894;15.542;2022-11-11T05:56:23;2.50;99.90
11569;DHT22;5840;46.894;15.542;2022-11-11T05:58:50;2.50;99.90
11569;DHT22;5840;46.894;15.542;2022-11-11T06:01:17;2.50;99.90
11569;DHT22;5840;46.894;15.542;2022-11-11T06:03:44;2.50;99.90
11569;DHT22;5840;46.894;15.542;2022-11-11T06:06:12;2.50;99.90
11569;DHT22;5840;46.894;15.542;2022-11-11T06:08:40;2.50;99.90
11569;DHT22;5840;46.894;15.542;2022-11-11T06:11:07;2.50;99.90
11569;DHT22;5840;46.894;15.542;2022-11-11T06:13:34;2.50;99.90
11569;DHT22;5840;46.894;15.542;2022-11-11T06:16:01;2.60;99.90
11569;DHT22;5840;46.894;15.542;2022-11-11T06:18:28;2.60;99.90
11569;DHT22;5840;46.894;15.542;2022-11-11T06:20:56;2.60;99.90
11569;DHT22;5840;46.894;15.542;2022-11-11T06:23:24;2.60;99.90
11569;DHT22;5840;46.894;15.542;2022-11-11T06:25:53;2.60;99.90
11569;DHT22;5840;46.894;15.542;2022-11-11T06:28:38;2.70;99.90
11569;DHT22;5840;46.894;15.542;2022-11-11T06:31:06;2.80;99.90
11569;DHT22;5840;46.894;15.542;2022-11-11T06:33:33;2.80;99.90
11569;DHT22;5840;46.894;15.542;2022-11-11T06:36:00;2.90;99.90
11569;DHT22;5840;46.894;15.542;2022-11-11T06:38:27;3.10;99.90
11569;DHT22;5840;46.894;15.542;2022-11-11T06:40:55;3.20;99.90
11569;DHT22;5840;46.894;15.542;2022-11-11T06:43:23;3.40;99.90
11569;DHT22;5840;46.894;15.542;2022-11-11T06:45:50;3.50;99.90
11569;DHT22;5840;46.894;15.542;2022-11-11T06:48:17;3.70;99.90
11569;DHT22;5840;46.894;15.542;2022-11-11T06:50:44;3.90;99.90
11569;DHT22;5840;46.894;15.542;2022-11-11T06:53:13;4.00;99.90
11569;DHT22;5840;46.894;15.542;2022-11-11T06:55:40;4.10;99.90
11569;DHT22;5840;46.894;15.542;2022-11-11T06:58:10;4.20;99.90
11569;DHT22;5840;46.894;15.542;2022-11-11T07:00:38;4.20;99.90
11569;DHT22;5840;46.894;15.542;2022-11-11T07:03:06;4.30;99.90
11569;DHT22;5840;46.894;15.542;2022-11-11T07:05:33;4.30;99.90
11569;DHT22;5840;46.894;15.542;2022-11-11T07:08:01;4.30;99.90
11569;DHT22;5840;46.894;15.542;2022-11-11T07:10:29;4.30;99.90
11569;DHT22;5840;46.894;15.542;2022-11-11T07:12:56;4.40;99.90
11569;DHT22;5840;46.894;15.542;2022-11-11T07:15:24;4.50;99.90
11569;DHT22;5840;46.894;15.542;2022-11-11T07:17:51;4.70;99.90
11569;DHT22;5840;46.894;15.542;2022-11-11T07:20:18;4.70;99.90
11569;DHT22;5840;46.894;15.542;2022-11-11T07:22:46;4.80;99.90
11569;DHT22;5840;46.894;15.542;2022-11-11T07:25:14;4.80;99.90
11569;DHT22;5840;46.894;15.542;2022-11-11T07:27:42;4.80;99.90
11569;DHT22;5840;46.894;15.542;2022-11-11T07:30:10;4.90;99.90
11569;DHT22;5840;46.894;15.542;2022-11-11T07:32:43;4.90;99.90
11569;DHT22;5840;46.894;15.542;2022-11-11T07:35:10;5.00;99.90
11569;DHT22;5840;46.894;15.542;2022-11-11T07:37:39;5.00;99.90
11569;DHT22;5840;46.894;15.542;2022-11-11T07:40:07;5.00;99.90
11569;DHT22;5840;46.894;15.542;2022-11-11T07:42:35;5.00;99.90
11569;DHT22;5840;46.894;15.542;2022-11-11T07:45:02;5.00;99.90
11569;DHT22;5840;46.894;15.542;2022-11-11T07:47:29;5.00;99.90
11569;DHT22;5840;46.894;15.542;2022-11-11T07:49:57;5.00;99.90
11569;DHT22;5840;46.894;15.542;2022-11-11T07:52:24;5.20;99.90
11569;DHT22;5840;46.894;15.542;2022-11-11T07:54:51;5.40;99.90
11569;DHT22;5840;46.894;15.542;2022-11-11T07:57:18;5.70;99.90
11569;DHT22;5840;46.894;15.542;2022-11-11T07:59:45;5.90;99.90
11569;DHT22;5840;46.894;15.542;2022-11-11T08:02:13;6.10;99.90
11569;DHT22;5840;46.894;15.542;2022-11-11T08:04:40;6.30;99.90
11569;DHT22;5840;46.894;15.542;2022-11-11T08:07:08;6.60;99.90
11569;DHT22;5840;46.894;15.542;2022-11-11T08:09:35;6.80;99.90
11569;DHT22;5840;46.894;15.542;2022-11-11T08:12:02;6.90;99.90
11569;DHT22;5840;46.894;15.542;2022-11-11T08:14:46;7.10;99.90
11569;DHT22;5840;46.894;15.542;2022-11-11T08:17:13;7.20;99.90
11569;DHT22;5840;46.894;15.542;2022-11-11T08:19:40;7.40;99.90
11569;DHT22;5840;46.894;15.542;2022-11-11T08:22:08;7.60;99.90
11569;DHT22;5840;46.894;15.542;2022-11-11T08:24:35;7.90;99.90
11569;DHT22;5840;46.894;15.542;2022-11-11T08:27:02;8.10;99.90
11569;DHT22;5840;46.894;15.542;2022-11-11T08:29:29;8.20;99.90
11569;DHT22;5840;46.894;15.542;2022-11-11T08:31:56;8.40;99.90
11569;DHT22;5840;46.894;15.542;2022-11-11T08:34:23;8.60;99.90
11569;DHT22;5840;46.894;15.542;2022-11-11T08:36:50;8.80;99.90
11569;DHT22;5840;46.894;15.542;2022-11-11T08:39:18;9.00;99.90
11569;DHT22;5840;46.894;15.542;2022-11-11T08:41:45;9.20;99.90
11569;DHT22;5840;46.894;15.542;2022-11-11T08:44:13;9.50;99.90
11569;DHT22;5840;46.894;15.542;2022-11-11T08:46:40;9.60;99.90
11569;DHT22;5840;46.894;15.542;2022-11-11T08:49:07;9.70;99.90
11569;DHT22;5840;46.894;15.542;2022-11-11T08:51:36;9.80;99.90
11569;DHT22;5840;46.894;15.542;2022-11-11T08:54:03;9.90;99.90
11569;DHT22;5840;46.894;15.542;2022-11-11T08:56:31;9.80;99.90
11569;DHT22;5840;46.894;15.542;2022-11-11T08:58:58;9.70;99.90
11569;DHT22;5840;46.894;15.542;2022-11-11T09:01:25;9.50;99.90
11569;DHT22;5840;46.894;15.542;2022-11-11T09:03:52;9.30;99.90
11569;DHT22;5840;46.894;15.542;2022-11-11T09:06:19;9.10;99.90
11569;DHT22;5840;46.894;15.542;2022-11-11T09:08:46;8.90;99.90
11569;DHT22;5840;46.894;15.542;2022-11-11T09:11:13;8.70;99.90
11569;DHT22;5840;46.894;15.542;2022-11-11T09:13:42;8.50;99.90
11569;DHT22;5840;46.894;15.542;2022-11-11T09:16:09;8.40;99.90
11569;DHT22;5840;46.894;15.542;2022-11-11T09:18:36;8.30;99.90
11569;DHT22;5840;46.894;15.542;2022-11-11T09:21:04;8.30;99.90
11569;DHT22;5840;46.894;15.542;2022-11-11T09:23:30;8.30;99.90
11569;DHT22;5840;46.894;15.542;2022-11-11T09:25:59;8.40;99.90
11569;DHT22;5840;46.894;15.542;2022-11-11T09:28:28;8.40;99.90
11569;DHT22;5840;46.894;15.542;2022-11-11T09:30:59;8.50;99.90
11569;DHT22;5840;46.894;15.542;2022-11-11T09:33:26;8.50;99.90
11569;DHT22;5840;46.894;15.542;2022-11-11T09:35:53;8.50;99.90
11569;DHT22;5840;46.894;15.542;2022-11-11T09:38:20;8.50;99.90
11569;DHT22;5840;46.894;15.542;2022-11-11T09:41:02;8.60;99.90
11569;DHT22;5840;46.894;15.542;2022-11-11T09:43:35;8.50;99.90
11569;DHT22;5840;46.894;15.542;2022-11-11T09:46:22;8.60;99.90
11569;DHT22;5840;46.894;15.542;2022-11-11T09:51:56;8.60;99.90
11569;DHT22;5840;46.894;15.542;2022-11-11T09:54:30;8.80;99.90
11569;DHT22;5840;46.894;15.542;2022-11-11T09:57:02;8.90;99.90
11569;DHT22;5840;46.894;15.542;2022-11-11T09:59:39;9.00;99.90
11569;DHT22;5840;46.894;15.542;2022-11-11T10:02:17;9.10;99.90
11569;DHT22;5840;46.894;15.542;2022-11-11T10:04:51;9.10;99.90
11569;DHT22;5840;46.894;15.542;2022-11-11T10:07:27;9.20;99.90
11569;DHT22;5840;46.894;15.542;2022-11-11T10:10:06;9.30;99.90
11569;DHT22;5840;46.894;15.542;2022-11-11T10:12:37;9.30;99.90
11569;DHT22;5840;46.894;15.542;2022-11-11T10:15:10;9.50;99.90
11569;DHT22;5840;46.894;15.542;2022-11-11T10:17:49;9.60;99.90
11569;DHT22;5840;46.894;15.542;2022-11-11T10:20:22;9.70;99.90
11569;DHT22;5840;46.894;15.542;2022-11-11T10:22:54;9.80;99.90
11569;DHT22;5840;46.894;15.542;2022-11-11T10:25:25;9.90;99.90
11569;DHT22;5840;46.894;15.542;2022-11-11T10:27:55;10.10;99.90
11569;DHT22;5840;46.894;15.542;2022-11-11T10:30:25;10.30;99.90
11569;DHT22;5840;46.894;15.542;2022-11-11T10:32:57;10.50;99.90
11569;DHT22;5840;46.894;15.542;2022-11-11T10:35:26;10.60;99.90
11569;DHT22;5840;46.894;15.542;2022-11-11T10:38:02;10.70;99.90
11569;DHT22;5840;46.894;15.542;2022-11-11T10:40:38;10.80;99.90
11569;DHT22;5840;46.894;15.542;2022-11-11T10:43:17;10.90;99.90
11569;DHT22;5840;46.894;15.542;2022-11-11T10:45:51;11.00;99.90
11569;DHT22;5840;46.894;15.542;2022-11-11T10:48:27;11.30;99.90
11569;DHT22;5840;46.894;15.542;2022-11-11T10:50:56;11.50;99.90
11569;DHT22;5840;46.894;15.542;2022-11-11T10:53:30;11.70;99.90
11569;DHT22;5840;46.894;15.542;2022-11-11T10:56:05;11.90;99.90
11569;DHT22;5840;46.894;15.542;2022-11-11T10:58:37;12.10;99.90
11569;DHT22;5840;46.894;15.542;2022-11-11T11:01:11;12.20;99.90
11569;DHT22;5840;46.894;15.542;2022-11-11T11:03:44;12.20;99.90
11569;DHT22;5840;46.894;15.542;2022-11-11T11:06:15;12.30;99.90
11569;DHT22;5840;46.894;15.542;2022-11-11T11:08:48;12.20;99.90
11569;DHT22;5840;46.894;15.542;2022-11-11T11:11:20;12.20;99.90
11569;DHT22;5840;46.894;15.542;2022-11-11T11:13:51;12.10;99.90
11569;DHT22;5840;46.894;15.542;2022-11-11T11:16:22;12.10;99.90
11569;DHT22;5840;46.894;15.542;2022-11-11T11:19:15;12.00;99.90
11569;DHT22;5840;46.894;15.542;2022-11-11T11:21:51;12.00;99.90
11569;DHT22;5840;46.894;15.542;2022-11-11T11:24:20;12.10;99.90
11569;DHT22;5840;46.894;15.542;2022-11-11T11:26:48;12.10;99.90
11569;DHT22;5840;46.894;15.542;2022-11-11T11:29:24;12.00;99.90
11569;DHT22;5840;46.894;15.542;2022-11-11T11:31:52;12.00;99.90
11569;DHT22;5840;46.894;15.542;2022-11-11T11:34:21;12.00;99.90
11569;DHT22;5840;46.894;15.542;2022-11-11T11:37:05;11.90;99.90
11569;DHT22;5840;46.894;15.542;2022-11-11T11:39:33;11.90;99.90
11569;DHT22;5840;46.894;15.542;2022-11-11T11:42:00;11.80;99.90
11569;DHT22;5840;46.894;15.542;2022-11-11T11:44:28;11.80;99.90
11569;DHT22;5840;46.894;15.542;2022-11-11T11:47:13;11.80;99.90
11569;DHT22;5840;46.894;15.542;2022-11-11T11:50:13;11.90;99.90
11569;DHT22;5840;46.894;15.542;2022-11-11T11:52:49;11.80;99.90
11569;DHT22;5840;46.894;15.542;2022-11-11T11:55:23;11.80;99.90
11569;DHT22;5840;46.894;15.542;2022-11-11T11:57:59;11.90;99.90
11569;DHT22;5840;46.894;15.542;2022-11-11T12:00:30;11.90;99.90
11569;DHT22;5840;46.894;15.542;2022-11-11T12:03:16;11.90;99.90
11569;DHT22;5840;46.894;15.542;2022-11-11T12:05:57;11.80;99.90
11569;DHT22;5840;46.894;15.542;2022-11-11T12:08:38;11.80;99.90
11569;DHT22;5840;46.894;15.542;2022-11-11T12:11:11;11.80;99.90
11569;DHT22;5840;46.894;15.542;2022-11-11T12:13:48;11.70;99.90
11569;DHT22;5840;46.894;15.542;2022-11-11T12:16:23;11.70;99.90
11569;DHT22;5840;46.894;15.542;2022-11-11T12:19:05;11.70;99.90
11569;DHT22;5840;46.894;15.542;2022-11-11T12:21:39;11.70;99.90
11569;DHT22;5840;46.894;15.542;2022-11-11T12:24:14;11.80;99.90
11569;DHT22;5840;46.894;15.542;2022-11-11T12:26:50;11.90;99.90
11569;DHT22;5840;46.894;15.542;2022-11-11T12:29:33;12.10;99.90
11569;DHT22;5840;46.894;15.542;2022-11-11T12:32:23;12.20;99.90
11569;DHT22;5840;46.894;15.542;2022-11-11T12:35:11;12.30;99.90
11569;DHT22;5840;46.894;15.542;2022-11-11T12:37:48;12.40;99.90
11569;DHT22;5840;46.894;15.542;2022-11-11T12:40:23;12.50;99.90
11569;DHT22;5840;46.894;15.542;2022-11-11T12:43:05;12.60;99.90
11569;DHT22;5840;46.894;15.542;2022-11-11T12:45:38;12.60;99.90
11569;DHT22;5840;46.894;15.542;2022-11-11T12:48:30;12.60;99.90
11569;DHT22;5840;46.894;15.542;2022-11-11T12:51:07;12.60;99.90
11569;DHT22;5840;46.894;15.542;2022-11-11T12:53:44;12.50;99.90
11569;DHT22;5840;46.894;15.542;2022-11-11T12:56:20;12.40;99.90
11569;DHT22;5840;46.894;15.542;2022-11-11T12:58:54;12.40;99.90
11569;DHT22;5840;46.894;15.542;2022-11-11T13:01:31;12.40;99.90
11569;DHT22;5840;46.894;15.542;2022-11-11T13:04:19;12.50;99.90
11569;DHT22;5840;46.894;15.542;2022-11-11T13:06:59;12.50;99.90
11569;DHT22;5840;46.894;15.542;2022-11-11T13:09:55;12.50;99.90
11569;DHT22;5840;46.894;15.542;2022-11-11T13:12:30;12.40;99.90
11569;DHT22;5840;46.894;15.542;2022-11-11T13:15:02;12.30;99.90
11569;DHT22;5840;46.894;15.542;2022-11-11T13:17:31;12.20;99.90
11569;DHT22;5840;46.894;15.542;2022-11-11T13:20:01;12.10;99.90
11569;DHT22;5840;46.894;15.542;2022-11-11T13:22:30;12.10;99.90
11569;DHT22;5840;46.894;15.542;2022-11-11T13:25:03;12.10;99.90
11569;DHT22;5840;46.894;15.542;2022-11-11T13:27:37;12.10;99.90
11569;DHT22;5840;46.894;15.542;2022-11-11T13:30:35;12.10;99.90
11569;DHT22;5840;46.894;15.542;2022-11-11T13:33:08;12.10;99.90
11569;DHT22;5840;46.894;15.542;2022-11-11T13:35:38;12.20;99.90
11569;DHT22;5840;46.894;15.542;2022-11-11T13:38:12;12.20;99.90
11569;DHT22;5840;46.894;15.542;2022-11-11T13:40:50;12.20;99.90
11569;DHT22;5840;46.894;15.542;2022-11-11T13:43:20;12.10;99.90
11569;DHT22;5840;46.894;15.542;2022-11-11T13:45:53;12.00;99.90
11569;DHT22;5840;46.894;15.542;2022-11-11T13:48:26;12.00;99.90
11569;DHT22;5840;46.894;15.542;2022-11-11T13:51:11;11.90;99.90
11569;DHT22;5840;46.894;15.542;2022-11-11T13:53:40;11.80;99.90
11569;DHT22;5840;46.894;15.542;2022-11-11T13:56:10;11.80;99.90
11569;DHT22;5840;46.894;15.542;2022-11-11T13:58:39;11.80;99.90
11569;DHT22;5840;46.894;15.542;2022-11-11T14:01:08;11.80;99.90
11569;DHT22;5840;46.894;15.542;2022-11-11T14:03:58;11.80;99.90
11569;DHT22;5840;46.894;15.542;2022-11-11T14:12:38;11.80;99.90
11569;DHT22;5840;46.894;15.542;2022-11-11T14:15:31;11.70;99.90
11569;DHT22;5840;46.894;15.542;2022-11-11T14:17:59;11.70;99.90
11569;DHT22;5840;46.894;15.542;2022-11-11T14:20:41;11.60;99.90
11569;DHT22;5840;46.894;15.542;2022-11-11T14:23:32;11.60;99.90
11569;DHT22;5840;46.894;15.542;2022-11-11T14:26:23;11.60;99.90
11569;DHT22;5840;46.894;15.542;2022-11-11T14:28:54;11.50;99.90
11569;DHT22;5840;46.894;15.542;2022-11-11T14:31:54;11.50;99.90
11569;DHT22;5840;46.894;15.542;2022-11-11T14:37:31;11.50;99.90
11569;DHT22;5840;46.894;15.542;2022-11-11T14:40:01;11.40;99.90
11569;DHT22;5840;46.894;15.542;2022-11-11T14:42:42;11.40;99.90
11569;DHT22;5840;46.894;15.542;2022-11-11T14:51:49;11.10;99.90
11569;DHT22;5840;46.894;15.542;2022-11-11T14:57:19;11.00;99.90
11569;DHT22;5840;46.894;15.542;2022-11-11T14:59:48;10.90;99.90
11569;DHT22;5840;46.894;15.542;2022-11-11T15:02:26;10.80;99.90
11569;DHT22;5840;46.894;15.542;2022-11-11T15:04:57;10.70;99.90
11569;DHT22;5840;46.894;15.542;2022-11-11T15:10:48;10.60;99.90
11569;DHT22;5840;46.894;15.542;2022-11-11T15:16:30;10.50;99.90
11569;DHT22;5840;46.894;15.542;2022-11-11T15:19:31;10.40;99.90
11569;DHT22;5840;46.894;15.542;2022-11-11T15:22:23;10.30;99.90
11569;DHT22;5840;46.894;15.542;2022-11-11T15:25:00;10.30;99.90
11569;DHT22;5840;46.894;15.542;2022-11-11T15:27:40;10.20;99.90
11569;DHT22;5840;46.894;15.542;2022-11-11T15:30:11;10.10;99.90
11569;DHT22;5840;46.894;15.542;2022-11-11T15:33:01;10.00;99.90
11569;DHT22;5840;46.894;15.542;2022-11-11T15:35:39;9.90;99.90
11569;DHT22;5840;46.894;15.542;2022-11-11T15:38:10;9.80;99.90
11569;DHT22;5840;46.894;15.542;2022-11-11T15:40:44;9.70;99.90
11569;DHT22;5840;46.894;15.542;2022-11-11T15:43:17;9.60;99.90
11569;DHT22;5840;46.894;15.542;2022-11-11T15:45:45;9.50;99.90
11569;DHT22;5840;46.894;15.542;2022-11-11T15:48:18;9.40;99.90
11569;DHT22;5840;46.894;15.542;2022-11-11T15:50:46;9.40;99.90
11569;DHT22;5840;46.894;15.542;2022-11-11T15:53:13;9.30;99.90
11569;DHT22;5840;46.894;15.542;2022-11-11T15:55:41;9.30;99.90
11569;DHT22;5840;46.894;15.542;2022-11-11T15:58:25;9.20;99.90
11569;DHT22;5840;46.894;15.542;2022-11-11T16:00:52;9.10;99.90
11569;DHT22;5840;46.894;15.542;2022-11-11T16:03:24;9.10;99.90
11569;DHT22;5840;46.894;15.542;2022-11-11T16:05:54;9.00;99.90
11569;DHT22;5840;46.894;15.542;2022-11-11T16:08:21;8.90;99.90
11569;DHT22;5840;46.894;15.542;2022-11-11T16:10:53;8.80;99.90
11569;DHT22;5840;46.894;15.542;2022-11-11T16:13:24;8.70;99.90
11569;DHT22;5840;46.894;15.542;2022-11-11T16:15:55;8.70;99.90
11569;DHT22;5840;46.894;15.542;2022-11-11T16:18:27;8.60;99.90
11569;DHT22;5840;46.894;15.542;2022-11-11T16:20:59;8.60;99.90
11569;DHT22;5840;46.894;15.542;2022-11-11T16:23:27;8.50;99.90
11569;DHT22;5840;46.894;15.542;2022-11-11T16:25:57;8.40;99.90
11569;DHT22;5840;46.894;15.542;2022-11-11T16:28:26;8.40;99.90
11569;DHT22;5840;46.894;15.542;2022-11-11T16:30:57;8.40;99.90
11569;DHT22;5840;46.894;15.542;2022-11-11T16:33:34;8.30;99.90
11569;DHT22;5840;46.894;15.542;2022-11-11T16:36:08;8.30;99.90
11569;DHT22;5840;46.894;15.542;2022-11-11T16:38:36;8.20;99.90
11569;DHT22;5840;46.894;15.542;2022-11-11T16:41:04;8.20;99.90
11569;DHT22;5840;46.894;15.542;2022-11-11T16:43:34;8.20;99.90
11569;DHT22;5840;46.894;15.542;2022-11-11T16:46:08;8.20;99.90